PWSweather.com
Personal Weather Stations
Station Observations
ANTHEMNP
Anthem, AZ 85086

Anthem, AZ 85086

Lat: 33.876464, Lon: -112.13861199999997

Elevation: 1930

Station Type: AcuRite 1036

Latest ConditionsUpdated 9:50:01 AM MST Friday, May 25, 2018
Currently Today's Max Today's Min Today's Average
Temperature 89.4°F31.9°C 90.1°F32.3°C 64.9°F18.3°C 74.2°F23.4°C
Dew Point 35.7°F2.1°C 36.1°F2.3°C 27.2°F-2.7°C 32.1°F0.1°C
Winds 4.6 mph SSE7.4 kmh SSE 4.6 mph SSE7.4 kmh SSE - 0.5 mph 0.8 kmh
Wind Gusts 6.9 mph11.1 kmh 6.9 mph11.1 kmh - -
Humidity 15% 28% 14% 22%
Pressure 27.83 in942.4 mb 27.84 in942.8 mb 27.80 in941.4 mb -
Hour Temp Dew Point Humidity Winds Wind Gusts Pressure Precip Precip Rate Daily Precip Total
09:50 AM 89.4°F31.9°C 35.7°F2.1°C 15% 4.6 mph SSE7.4 kmh SSE 6.9 mph11.1 kmh 27.83 in942.4 mb - 0.00 in0.0 mm 0.00 in0.0 mm
09:45 AM 90.0°F32.2°C 36.1°F2.3°C 15% 3.5 mph SW5.6 kmh SW 4.6 mph7.4 kmh 27.83 in942.4 mb - 0.00 in0.0 mm 0.00 in0.0 mm
09:40 AM 89.1°F31.7°C 35.4°F1.9°C 15% 4.6 mph SSW7.4 kmh SSW 5.8 mph9.3 kmh 27.83 in942.4 mb - 0.00 in0.0 mm 0.00 in0.0 mm
09:35 AM 88.7°F31.5°C 35.1°F1.7°C 15% 3.5 mph SSE5.6 kmh SSE 4.6 mph7.4 kmh 27.83 in942.4 mb - 0.00 in0.0 mm 0.00 in0.0 mm
09:30 AM 89.3°F31.8°C 35.5°F1.9°C 15% 4.6 mph SSW7.4 kmh SSW 5.8 mph9.3 kmh 27.83 in942.4 mb - 0.00 in0.0 mm 0.00 in0.0 mm
09:25 AM 90.1°F32.3°C 34.5°F1.4°C 14% 3.5 mph S5.6 kmh S 4.6 mph7.4 kmh 27.83 in942.4 mb - 0.00 in0.0 mm 0.00 in0.0 mm
09:20 AM 89.7°F32.1°C 35.9°F2.2°C 15% 2.3 mph SE3.7 kmh SE 6.9 mph11.1 kmh 27.83 in942.4 mb - 0.00 in0.0 mm 0.00 in0.0 mm
09:15 AM 89.6°F32.0°C 35.8°F2.1°C 15% 1.2 mph SSW1.9 kmh SSW 3.5 mph5.6 kmh 27.83 in942.4 mb - 0.00 in0.0 mm 0.00 in0.0 mm
09:10 AM 87.9°F31.1°C 34.5°F1.4°C 15% 2.3 mph SSE3.7 kmh SSE 2.3 mph3.7 kmh 27.83 in942.4 mb - 0.00 in0.0 mm 0.00 in0.0 mm
09:00 AM 87.4°F30.8°C 34.0°F1.1°C 15% 1.2 mph SSE1.9 kmh SSE 3.5 mph5.6 kmh 27.84 in942.8 mb - 0.00 in0.0 mm 0.00 in0.0 mm
08:55 AM 88.1°F31.2°C 34.6°F1.4°C 15% 1.2 mph S1.9 kmh S 4.6 mph7.4 kmh 27.84 in942.8 mb - 0.00 in0.0 mm 0.00 in0.0 mm
08:50 AM 87.4°F30.8°C 34.1°F1.2°C 15% 1.2 mph S1.9 kmh S 3.5 mph5.6 kmh 27.84 in942.8 mb - 0.00 in0.0 mm 0.00 in0.0 mm
08:45 AM 86.6°F30.3°C 33.5°F0.8°C 15% 3.5 mph SSW5.6 kmh SSW 3.5 mph5.6 kmh 27.84 in942.8 mb - 0.00 in0.0 mm 0.00 in0.0 mm
08:40 AM 87.2°F30.7°C 35.5°F1.9°C 16% Calm Calm 1.2 mph1.9 kmh 27.84 in942.8 mb - 0.00 in0.0 mm 0.00 in0.0 mm
08:35 AM 85.7°F29.8°C 34.3°F1.3°C 16% 1.2 mph SE1.9 kmh SE 2.3 mph3.7 kmh 27.84 in942.8 mb - 0.00 in0.0 mm 0.00 in0.0 mm
08:30 AM 85.6°F29.8°C 34.2°F1.2°C 16% 1.2 mph NNW1.9 kmh NNW 1.2 mph1.9 kmh 27.84 in942.8 mb - 0.00 in0.0 mm 0.00 in0.0 mm
08:25 AM 86.0°F30.0°C 34.6°F1.4°C 16% 2.3 mph SSE3.7 kmh SSE 4.6 mph7.4 kmh 27.84 in942.8 mb - 0.00 in0.0 mm 0.00 in0.0 mm
08:20 AM 85.3°F29.6°C 34.0°F1.1°C 16% 2.3 mph WSW3.7 kmh WSW 2.3 mph3.7 kmh 27.84 in942.8 mb - 0.00 in0.0 mm 0.00 in0.0 mm
08:15 AM 85.1°F29.5°C 33.8°F1.0°C 16% 2.3 mph S3.7 kmh S 3.5 mph5.6 kmh 27.84 in942.8 mb - 0.00 in0.0 mm 0.00 in0.0 mm
08:10 AM 85.5°F29.7°C 34.2°F1.2°C 16% 2.3 mph S3.7 kmh S 2.3 mph3.7 kmh 27.84 in942.8 mb - 0.00 in0.0 mm 0.00 in0.0 mm
08:00 AM 84.7°F29.3°C 33.5°F0.8°C 16% 1.2 mph SSE1.9 kmh SSE 2.3 mph3.7 kmh 27.84 in942.8 mb - 0.00 in0.0 mm 0.00 in0.0 mm
07:55 AM 85.1°F29.5°C 33.8°F1.0°C 16% Calm Calm 4.6 mph7.4 kmh 27.84 in942.8 mb - 0.00 in0.0 mm 0.00 in0.0 mm
07:50 AM 84.4°F29.1°C 33.3°F0.7°C 16% 2.3 mph SSE3.7 kmh SSE 3.5 mph5.6 kmh 27.84 in942.8 mb - 0.00 in0.0 mm 0.00 in0.0 mm
07:45 AM 84.3°F29.1°C 33.2°F0.7°C 16% Calm Calm 2.3 mph3.7 kmh 27.84 in942.8 mb - 0.00 in0.0 mm 0.00 in0.0 mm
07:40 AM 84.2°F29.0°C 33.1°F0.6°C 16% Calm Calm -- 27.84 in942.8 mb - 0.00 in0.0 mm 0.00 in0.0 mm
07:35 AM 83.8°F28.8°C 32.8°F0.4°C 16% 1.2 mph S1.9 kmh S 3.5 mph5.6 kmh 27.84 in942.8 mb - 0.00 in0.0 mm 0.00 in0.0 mm
07:30 AM 82.8°F28.2°C 33.5°F0.8°C 17% 1.2 mph S1.9 kmh S 1.2 mph1.9 kmh 27.84 in942.8 mb - 0.00 in0.0 mm 0.00 in0.0 mm
07:25 AM 81.7°F27.6°C 32.6°F0.3°C 17% 1.2 mph S1.9 kmh S -- 27.84 in942.8 mb - 0.00 in0.0 mm 0.00 in0.0 mm
07:20 AM 81.3°F27.4°C 32.3°F0.2°C 17% Calm Calm -- 27.84 in942.8 mb - 0.00 in0.0 mm 0.00 in0.0 mm
07:15 AM 79.9°F26.6°C 31.2°F-0.4°C 17% Calm Calm -- 27.84 in942.8 mb - 0.00 in0.0 mm 0.00 in0.0 mm
07:10 AM 78.8°F26.0°C 31.7°F-0.2°C 18% Calm Calm -- 27.84 in942.8 mb - 0.00 in0.0 mm 0.00 in0.0 mm
07:00 AM 77.9°F25.5°C 32.3°F0.2°C 19% Calm Calm -- 27.84 in942.8 mb - 0.00 in0.0 mm 0.00 in0.0 mm
06:55 AM 76.8°F24.9°C 31.4°F-0.3°C 19% Calm Calm -- 27.84 in942.8 mb - 0.00 in0.0 mm 0.00 in0.0 mm
06:50 AM 75.9°F24.4°C 31.9°F-0.1°C 20% Calm Calm -- 27.84 in942.8 mb - 0.00 in0.0 mm 0.00 in0.0 mm
06:45 AM 76.5°F24.7°C 33.6°F0.9°C 21% Calm Calm -- 27.84 in942.8 mb - 0.00 in0.0 mm 0.00 in0.0 mm
06:40 AM 75.9°F24.4°C 33.1°F0.6°C 21% Calm Calm -- 27.84 in942.8 mb - 0.00 in0.0 mm 0.00 in0.0 mm
06:35 AM 75.1°F23.9°C 32.5°F0.3°C 21% Calm Calm -- 27.84 in942.8 mb - 0.00 in0.0 mm 0.00 in0.0 mm
06:30 AM 75.0°F23.9°C 32.4°F0.2°C 21% Calm Calm -- 27.84 in942.8 mb - 0.00 in0.0 mm 0.00 in0.0 mm
06:25 AM 73.9°F23.3°C 31.5°F-0.3°C 21% Calm Calm -- 27.83 in942.4 mb - 0.00 in0.0 mm 0.00 in0.0 mm
06:20 AM 72.9°F22.7°C 31.8°F-0.1°C 22% Calm Calm -- 27.83 in942.4 mb - 0.00 in0.0 mm 0.00 in0.0 mm
06:15 AM 72.2°F22.3°C 31.3°F-0.4°C 22% Calm Calm -- 27.83 in942.4 mb - 0.00 in0.0 mm 0.00 in0.0 mm
06:10 AM 70.5°F21.4°C 31.9°F-0.1°C 24% Calm Calm -- 27.83 in942.4 mb - 0.00 in0.0 mm 0.00 in0.0 mm
06:00 AM 65.2°F18.4°C 28.5°F-1.9°C 25% Calm Calm -- 27.82 in942.1 mb - 0.00 in0.0 mm 0.00 in0.0 mm
05:55 AM 65.1°F18.4°C 28.4°F-2.0°C 25% Calm Calm -- 27.82 in942.1 mb - 0.00 in0.0 mm 0.00 in0.0 mm
05:50 AM 65.1°F18.4°C 27.4°F-2.6°C 24% Calm Calm -- 27.82 in942.1 mb - 0.00 in0.0 mm 0.00 in0.0 mm
05:45 AM 64.9°F18.3°C 27.2°F-2.7°C 24% Calm Calm -- 27.82 in942.1 mb - 0.00 in0.0 mm 0.00 in0.0 mm
05:40 AM 64.9°F18.3°C 27.2°F-2.7°C 24% Calm Calm -- 27.82 in942.1 mb - 0.00 in0.0 mm 0.00 in0.0 mm
05:35 AM 64.9°F18.3°C 28.2°F-2.1°C 25% Calm Calm -- 27.82 in942.1 mb - 0.00 in0.0 mm 0.00 in0.0 mm
05:30 AM 64.9°F18.3°C 28.2°F-2.1°C 25% Calm Calm -- 27.82 in942.1 mb - 0.00 in0.0 mm 0.00 in0.0 mm
05:25 AM 65.2°F18.4°C 27.4°F-2.6°C 24% Calm Calm -- 27.82 in942.1 mb - 0.00 in0.0 mm 0.00 in0.0 mm
05:20 AM 65.3°F18.5°C 28.5°F-1.9°C 25% Calm Calm -- 27.82 in942.1 mb - 0.00 in0.0 mm 0.00 in0.0 mm
05:15 AM 65.5°F18.6°C 28.7°F-1.8°C 25% Calm Calm -- 27.82 in942.1 mb - 0.00 in0.0 mm 0.00 in0.0 mm
05:10 AM 65.3°F18.5°C 28.5°F-1.9°C 25% Calm Calm -- 27.82 in942.1 mb - 0.00 in0.0 mm 0.00 in0.0 mm
05:00 AM 65.7°F18.7°C 29.9°F-1.2°C 26% Calm Calm -- 27.82 in942.1 mb - 0.00 in0.0 mm 0.00 in0.0 mm
04:55 AM 65.9°F18.8°C 30.0°F-1.1°C 26% Calm Calm -- 27.82 in942.1 mb - 0.00 in0.0 mm 0.00 in0.0 mm
04:50 AM 66.0°F18.9°C 30.1°F-1.1°C 26% Calm Calm -- 27.82 in942.1 mb - 0.00 in0.0 mm 0.00 in0.0 mm
04:45 AM 66.1°F18.9°C 30.2°F-1.0°C 26% Calm Calm -- 27.82 in942.1 mb - 0.00 in0.0 mm 0.00 in0.0 mm
04:40 AM 66.6°F19.2°C 30.6°F-0.8°C 26% Calm Calm -- 27.82 in942.1 mb - 0.00 in0.0 mm 0.00 in0.0 mm
04:35 AM 66.5°F19.2°C 30.6°F-0.8°C 26% Calm Calm -- 27.82 in942.1 mb - 0.00 in0.0 mm 0.00 in0.0 mm
04:30 AM 65.8°F18.8°C 30.9°F-0.6°C 27% Calm Calm -- 27.82 in942.1 mb - 0.00 in0.0 mm 0.00 in0.0 mm
04:25 AM 65.8°F18.8°C 30.9°F-0.6°C 27% Calm Calm -- 27.82 in942.1 mb - 0.00 in0.0 mm 0.00 in0.0 mm
04:20 AM 66.2°F19.0°C 31.2°F-0.4°C 27% Calm Calm -- 27.82 in942.1 mb - 0.00 in0.0 mm 0.00 in0.0 mm
04:15 AM 66.6°F19.2°C 31.5°F-0.3°C 27% Calm Calm -- 27.82 in942.1 mb - 0.00 in0.0 mm 0.00 in0.0 mm
04:10 AM 66.6°F19.2°C 31.5°F-0.3°C 27% Calm Calm -- 27.82 in942.1 mb - 0.00 in0.0 mm 0.00 in0.0 mm
04:00 AM 66.2°F19.0°C 32.1°F0.1°C 28% Calm Calm -- 27.82 in942.1 mb - 0.00 in0.0 mm 0.00 in0.0 mm
03:55 AM 66.0°F18.9°C 31.9°F-0.1°C 28% Calm Calm -- 27.82 in942.1 mb - 0.00 in0.0 mm 0.00 in0.0 mm
03:50 AM 66.0°F18.9°C 31.9°F-0.1°C 28% Calm Calm -- 27.82 in942.1 mb - 0.00 in0.0 mm 0.00 in0.0 mm
03:45 AM 66.6°F19.2°C 32.5°F0.3°C 28% Calm Calm -- 27.82 in942.1 mb - 0.00 in0.0 mm 0.00 in0.0 mm
03:40 AM 66.6°F19.2°C 31.5°F-0.3°C 27% Calm Calm -- 27.81 in941.8 mb - 0.00 in0.0 mm 0.00 in0.0 mm
03:35 AM 67.1°F19.5°C 32.0°F0.0°C 27% Calm Calm -- 27.81 in941.8 mb - 0.00 in0.0 mm 0.00 in0.0 mm
03:30 AM 67.8°F19.9°C 32.6°F0.3°C 27% Calm Calm -- 27.81 in941.8 mb - 0.00 in0.0 mm 0.00 in0.0 mm
03:25 AM 68.1°F20.1°C 32.8°F0.4°C 27% Calm Calm -- 27.81 in941.8 mb - 0.00 in0.0 mm 0.00 in0.0 mm
03:20 AM 68.5°F20.3°C 32.2°F0.1°C 26% Calm Calm -- 27.81 in941.8 mb - 0.00 in0.0 mm 0.00 in0.0 mm
03:15 AM 68.8°F20.4°C 32.5°F0.3°C 26% Calm Calm -- 27.81 in941.8 mb - 0.00 in0.0 mm 0.00 in0.0 mm
03:10 AM 69.3°F20.7°C 32.9°F0.5°C 26% Calm Calm -- 27.81 in941.8 mb - 0.00 in0.0 mm 0.00 in0.0 mm
03:00 AM 69.8°F21.0°C 32.4°F0.2°C 25% Calm Calm -- 27.81 in941.8 mb - 0.00 in0.0 mm 0.00 in0.0 mm
02:55 AM 70.5°F21.4°C 33.0°F0.6°C 25% Calm Calm -- 27.81 in941.8 mb - 0.00 in0.0 mm 0.00 in0.0 mm
02:50 AM 69.4°F20.8°C 32.0°F0.0°C 25% Calm Calm -- 27.81 in941.8 mb - 0.00 in0.0 mm 0.00 in0.0 mm
02:45 AM 69.4°F20.8°C 32.0°F0.0°C 25% Calm Calm -- 27.81 in941.8 mb - 0.00 in0.0 mm 0.00 in0.0 mm
02:40 AM 69.3°F20.7°C 32.0°F0.0°C 25% Calm Calm -- 27.80 in941.4 mb - 0.00 in0.0 mm 0.00 in0.0 mm
02:35 AM 69.8°F21.0°C 32.4°F0.2°C 25% Calm Calm -- 27.80 in941.4 mb - 0.00 in0.0 mm 0.00 in0.0 mm
02:30 AM 69.4°F20.8°C 32.0°F0.0°C 25% Calm Calm -- 27.80 in941.4 mb - 0.00 in0.0 mm 0.00 in0.0 mm
02:25 AM 69.3°F20.7°C 31.9°F-0.1°C 25% Calm Calm -- 27.81 in941.8 mb - 0.00 in0.0 mm 0.00 in0.0 mm
02:20 AM 69.8°F21.0°C 32.4°F0.2°C 25% Calm Calm -- 27.81 in941.8 mb - 0.00 in0.0 mm 0.00 in0.0 mm
02:15 AM 69.8°F21.0°C 32.4°F0.2°C 25% Calm Calm -- 27.80 in941.4 mb - 0.00 in0.0 mm 0.00 in0.0 mm
02:10 AM 69.8°F21.0°C 32.4°F0.2°C 25% Calm Calm -- 27.80 in941.4 mb - 0.00 in0.0 mm 0.00 in0.0 mm
02:00 AM 70.0°F21.1°C 32.5°F0.3°C 25% Calm Calm -- 27.80 in941.4 mb - 0.00 in0.0 mm 0.00 in0.0 mm
01:55 AM 70.2°F21.2°C 32.7°F0.4°C 25% Calm Calm -- 27.80 in941.4 mb - 0.00 in0.0 mm 0.00 in0.0 mm
01:50 AM 70.1°F21.2°C 31.6°F-0.2°C 24% Calm Calm -- 27.80 in941.4 mb - 0.00 in0.0 mm 0.00 in0.0 mm
01:45 AM 70.2°F21.2°C 30.6°F-0.8°C 23% Calm Calm -- 27.80 in941.4 mb - 0.00 in0.0 mm 0.00 in0.0 mm
01:40 AM 70.8°F21.6°C 31.1°F-0.5°C 23% Calm Calm -- 27.80 in941.4 mb - 0.00 in0.0 mm 0.00 in0.0 mm
01:35 AM 70.7°F21.5°C 31.1°F-0.5°C 23% Calm Calm -- 27.81 in941.8 mb - 0.00 in0.0 mm 0.00 in0.0 mm
01:30 AM 71.1°F21.7°C 31.4°F-0.3°C 23% Calm Calm -- 27.81 in941.8 mb - 0.00 in0.0 mm 0.00 in0.0 mm
01:25 AM 71.1°F21.7°C 32.5°F0.3°C 24% Calm Calm -- 27.80 in941.4 mb - 0.00 in0.0 mm 0.00 in0.0 mm
01:20 AM 71.6°F22.0°C 32.9°F0.5°C 24% Calm Calm -- 27.80 in941.4 mb - 0.00 in0.0 mm 0.00 in0.0 mm
01:15 AM 72.1°F22.3°C 33.3°F0.7°C 24% Calm Calm -- 27.80 in941.4 mb - 0.00 in0.0 mm 0.00 in0.0 mm
01:10 AM 72.1°F22.3°C 32.2°F0.1°C 23% Calm Calm -- 27.80 in941.4 mb - 0.00 in0.0 mm 0.00 in0.0 mm
01:00 AM 72.9°F22.7°C 31.8°F-0.1°C 22% Calm Calm -- 27.80 in941.4 mb - 0.00 in0.0 mm 0.00 in0.0 mm
12:55 AM 72.6°F22.6°C 31.6°F-0.2°C 22% Calm Calm -- 27.80 in941.4 mb - 0.00 in0.0 mm 0.00 in0.0 mm
12:50 AM 72.9°F22.7°C 31.8°F-0.1°C 22% Calm Calm -- 27.80 in941.4 mb - 0.00 in0.0 mm 0.00 in0.0 mm
12:45 AM 73.3°F22.9°C 32.2°F0.1°C 22% Calm Calm -- 27.80 in941.4 mb - 0.00 in0.0 mm 0.00 in0.0 mm
12:40 AM 73.2°F22.9°C 32.1°F0.1°C 22% Calm Calm -- 27.80 in941.4 mb - 0.00 in0.0 mm 0.00 in0.0 mm
12:35 AM 72.8°F22.7°C 31.7°F-0.2°C 22% Calm Calm -- 27.80 in941.4 mb - 0.00 in0.0 mm 0.00 in0.0 mm
12:30 AM 72.1°F22.3°C 31.1°F-0.5°C 22% Calm Calm -- 27.80 in941.4 mb - 0.00 in0.0 mm 0.00 in0.0 mm
12:25 AM 72.1°F22.3°C 31.1°F-0.5°C 22% Calm Calm -- 27.80 in941.4 mb - 0.00 in0.0 mm 0.00 in0.0 mm
12:20 AM 72.5°F22.5°C 31.5°F-0.3°C 22% Calm Calm -- 27.80 in941.4 mb - 0.00 in0.0 mm 0.00 in0.0 mm
12:15 AM 72.7°F22.6°C 31.6°F-0.2°C 22% Calm Calm -- 27.80 in941.4 mb - 0.00 in0.0 mm 0.00 in0.0 mm
12:10 AM 72.9°F22.7°C 31.8°F-0.1°C 22% Calm Calm -- 27.80 in941.4 mb - 0.00 in0.0 mm 0.00 in0.0 mm
12:00 AM 73.5°F23.1°C 31.1°F-0.5°C 21% Calm Calm -- 27.80 in941.4 mb - 0.00 in0.0 mm 0.00 in0.0 mm